Time;durP1;ratioP1;P1;durP2;ratioP2;P2;SDS_P1;SDS_P2;PMS_P1;PMS_P2;Temp;Humidity;BMP_temperature;BMP_pressure;BME280_temperature;BME280_humidity;BME280_pressure;Samples;Min_cycle;Max_cycle;Signal;HPM_P1;HPM_P2
2021/04/18 00:00:18;;;;;;;2.47;0.93;;;;;;;9.83;35.59;101672.84;5085780;28;20025;-62
2021/04/18 00:02:48;;;;;;;1.48;0.95;;;;;;;9.91;34.93;101667.78;5085916;28;20020;-61
2021/04/18 00:05:15;;;;;;;2.13;1.30;;;;;;;9.77;35.20;101660.69;5085416;28;20500;-61
2021/04/18 00:07:41;;;;;;;1.40;0.80;;;;;;;9.86;34.27;101661.63;5085482;28;20089;-61
2021/04/18 00:10:08;;;;;;;2.35;1.20;;;;;;;9.86;34.27;101662.53;5085263;28;20115;-61
2021/04/18 00:12:33;;;;;;;1.50;0.80;;;;;;;9.80;34.42;101662.44;5085442;28;20028;-62
2021/04/18 00:14:59;;;;;;;1.60;1.10;;;;;;;9.94;33.40;101672.13;5085196;28;20025;-61
2021/04/18 00:17:24;;;;;;;1.85;1.20;;;;;;;9.82;33.81;101665.94;5085360;28;20396;-62
2021/04/18 00:19:49;;;;;;;2.80;1.02;;;;;;;9.81;33.68;101669.34;5085266;28;20020;-62
2021/04/18 00:22:15;;;;;;;1.58;0.80;;;;;;;9.87;33.41;101668.59;5085302;28;20016;-61
2021/04/18 00:24:41;;;;;;;2.20;1.00;;;;;;;9.82;33.36;101658.16;5085091;28;20016;-61
2021/04/18 00:27:07;;;;;;;7.32;1.08;;;;;;;9.77;33.29;101663.28;5084974;28;20067;-60
2021/04/18 00:29:32;;;;;;;1.70;1.00;;;;;;;9.78;33.42;101664.13;5084627;28;20021;-60
2021/04/18 00:31:58;;;;;;;1.60;0.93;;;;;;;9.77;33.32;101655.50;5083227;28;20058;-61
2021/04/18 00:34:23;;;;;;;1.70;1.08;;;;;;;9.66;33.70;101659.63;5085014;28;20116;-61
2021/04/18 00:36:49;;;;;;;2.88;1.10;;;;;;;9.67;33.40;101657.06;5085004;28;20472;-61
2021/04/18 00:39:15;;;;;;;1.67;0.90;;;;;;;9.63;33.38;101655.25;5084859;28;20028;-61
2021/04/18 00:41:40;;;;;;;1.38;0.90;;;;;;;9.67;33.36;101664.84;5084807;28;20059;-61
2021/04/18 00:44:05;;;;;;;2.17;1.02;;;;;;;9.63;33.24;101667.38;5084519;28;20040;-62
2021/04/18 00:46:31;;;;;;;2.05;1.02;;;;;;;9.60;33.47;101654.34;5085051;28;20305;-61
2021/04/18 00:48:57;;;;;;;2.47;1.10;;;;;;;9.51;33.82;101655.94;5083101;28;20051;-61
2021/04/18 00:51:22;;;;;;;2.15;1.13;;;;;;;9.51;33.94;101660.25;5084698;28;20504;-61
2021/04/18 00:53:47;;;;;;;1.92;1.05;;;;;;;9.55;33.61;101659.47;5084899;28;20084;-62
2021/04/18 00:56:14;;;;;;;3.50;1.05;;;;;;;9.44;33.85;101663.59;5084689;28;20021;-62
2021/04/18 00:58:39;;;;;;;1.77;1.02;;;;;;;9.45;33.52;101660.16;5084151;28;20024;-62
2021/04/18 01:01:06;;;;;;;1.95;1.10;;;;;;;9.39;33.85;101659.19;5084398;28;20373;-61
2021/04/18 01:03:33;;;;;;;2.10;1.20;;;;;;;9.37;33.97;101665.22;5084494;28;20021;-62
2021/04/18 01:05:59;;;;;;;1.40;1.00;;;;;;;9.36;33.57;101668.66;5084499;28;20032;-62
2021/04/18 01:08:24;;;;;;;4.32;1.30;;;;;;;9.30;33.87;101677.19;5084209;28;20030;-63
2021/04/18 01:10:50;;;;;;;1.67;0.93;;;;;;;9.30;33.88;101666.81;5084239;28;20033;-61
2021/04/18 01:13:15;;;;;;;1.75;1.15;;;;;;;9.21;34.15;101664.06;5083948;28;20077;-61
2021/04/18 01:15:42;;;;;;;2.17;1.13;;;;;;;9.14;34.38;101668.25;5084429;28;20044;-61
2021/04/18 01:18:07;;;;;;;2.88;1.30;;;;;;;9.11;34.44;101671.69;5082892;28;20016;-61
2021/04/18 01:20:33;;;;;;;4.72;1.40;;;;;;;9.05;34.33;101662.09;5084053;28;20021;-61
2021/04/18 01:22:58;;;;;;;3.13;1.23;;;;;;;9.00;34.45;101671.50;5084153;28;20047;-61
2021/04/18 01:25:24;;;;;;;3.30;1.27;;;;;;;9.00;34.45;101668.00;5084199;28;20035;-61
2021/04/18 01:27:49;;;;;;;4.55;1.25;;;;;;;8.93;34.83;101661.84;5083936;28;20036;-61
2021/04/18 01:30:26;;;;;;;3.05;1.15;;;;;;;8.88;34.94;101664.34;5083675;28;20058;-61
2021/04/18 01:32:54;;;;;;;2.50;1.10;;;;;;;8.85;34.95;101661.69;5083897;28;20123;-62
2021/04/18 01:35:20;;;;;;;4.28;1.23;;;;;;;8.81;35.28;101662.50;5083881;28;20036;-61
2021/04/18 01:37:46;;;;;;;2.30;1.75;;;;;;;8.76;35.18;101670.19;5083926;28;20021;-62
2021/04/18 01:40:14;;;;;;;3.17;1.17;;;;;;;8.71;35.37;101668.31;5083705;28;20024;-62
2021/04/18 01:42:41;;;;;;;4.82;1.33;;;;;;;8.65;35.58;101667.38;5082311;28;20024;-61
2021/04/18 01:45:09;;;;;;;2.58;1.30;;;;;;;8.63;35.75;101666.47;5083724;28;20170;-61
2021/04/18 01:47:36;;;;;;;2.38;1.20;;;;;;;8.60;35.79;101665.53;5083540;28;20028;-61
2021/04/18 01:50:02;;;;;;;3.30;1.20;;;;;;;8.52;35.91;101661.03;5083497;28;20048;-61
2021/04/18 01:52:27;;;;;;;2.53;1.65;;;;;;;8.51;36.07;101672.25;5083528;28;20031;-61
2021/04/18 01:54:53;;;;;;;2.05;1.17;;;;;;;8.46;36.28;101666.09;5083633;28;20064;-61
2021/04/18 01:57:18;;;;;;;4.15;1.45;;;;;;;8.40;36.25;101661.66;5083577;28;20046;-62
2021/04/18 01:59:45;;;;;;;4.40;1.85;;;;;;;8.34;36.44;101669.28;5083226;28;20024;-61
2021/04/18 02:02:12;;;;;;;2.88;1.20;;;;;;;8.27;36.54;101670.00;5083393;28;20024;-61
2021/04/18 02:04:38;;;;;;;3.13;1.38;;;;;;;8.24;36.51;101667.34;5082129;28;20028;-62
2021/04/18 02:07:07;;;;;;;2.58;1.35;;;;;;;8.19;36.78;101668.13;5083484;28;20031;-67
2021/04/18 02:09:34;;;;;;;4.07;1.23;;;;;;;8.14;36.76;101668.88;5082746;28;20024;-67
2021/04/18 02:12:01;;;;;;;2.60;1.38;;;;;;;8.07;36.95;101667.84;5083431;28;20029;-67
2021/04/18 02:14:27;;;;;;;1.80;1.20;;;;;;;8.00;37.29;101663.38;5083185;28;20031;-67
2021/04/18 02:16:53;;;;;;;2.50;1.13;;;;;;;7.97;37.51;101665.91;5083762;28;20024;-67
2021/04/18 02:19:19;;;;;;;2.22;1.23;;;;;;;7.91;37.60;101662.34;5083578;28;20023;-66
2021/04/18 02:21:44;;;;;;;3.03;1.50;;;;;;;7.85;37.71;101658.72;5083601;28;20684;-67
2021/04/18 02:24:10;;;;;;;1.85;1.25;;;;;;;7.81;37.87;101658.66;5083736;28;20020;-67
2021/04/18 02:26:35;;;;;;;3.15;1.30;;;;;;;7.77;38.19;101663.72;5083433;28;20027;-67
2021/04/18 02:29:01;;;;;;;4.45;1.30;;;;;;;7.71;38.40;101656.72;5083140;28;20020;-66
2021/04/18 02:31:26;;;;;;;6.75;1.42;;;;;;;7.66;38.53;101650.53;5083018;28;20081;-66
2021/04/18 02:33:51;;;;;;;2.58;1.20;;;;;;;7.61;38.84;101652.13;5083086;28;20103;-66
2021/04/18 02:36:17;;;;;;;2.83;1.48;;;;;;;7.53;39.07;101649.38;5083164;28;20039;-67
2021/04/18 02:38:42;;;;;;;4.45;1.10;;;;;;;7.52;38.97;101660.56;5082997;28;20081;-67
2021/04/18 02:41:08;;;;;;;4.20;1.20;;;;;;;7.47;39.26;101654.41;5083068;28;20032;-68
2021/04/18 02:43:33;;;;;;;1.90;1.10;;;;;;;7.44;39.42;101657.78;5082657;28;20112;-67
2021/04/18 02:45:58;;;;;;;3.25;1.30;;;;;;;7.40;39.50;101649.06;5082816;28;20027;-68
2021/04/18 02:48:24;;;;;;;2.92;1.27;;;;;;;7.36;39.78;101642.09;5082958;28;20041;-68
2021/04/18 02:50:50;;;;;;;4.50;1.60;;;;;;;7.32;39.84;101650.59;5082910;28;20112;-67
2021/04/18 02:53:15;;;;;;;2.95;1.08;;;;;;;7.28;40.09;101641.91;5082945;28;20074;-67
2021/04/18 02:55:40;;;;;;;2.35;1.10;;;;;;;7.26;40.16;101650.44;5083212;28;20358;-68
2021/04/18 02:58:06;;;;;;;2.95;1.65;;;;;;;7.21;40.42;101652.91;5082370;28;20024;-67
2021/04/18 03:00:32;;;;;;;2.75;1.30;;;;;;;7.18;40.68;101645.97;5082721;28;20013;-67
2021/04/18 03:02:57;;;;;;;2.67;1.30;;;;;;;7.20;40.72;101648.59;5082814;28;20028;-68
2021/04/18 03:05:22;;;;;;;2.45;1.38;;;;;;;7.12;40.95;101642.34;5081696;28;20082;-68
2021/04/18 03:07:48;;;;;;;1.60;1.10;;;;;;;7.07;41.11;101637.94;5082831;28;20036;-68
2021/04/18 03:10:14;;;;;;;4.28;1.73;;;;;;;7.04;41.34;101636.97;5082742;28;20024;-68
2021/04/18 03:12:40;;;;;;;5.72;1.42;;;;;;;6.97;41.84;101637.63;5082729;28;20021;-68
2021/04/18 03:15:07;;;;;;;2.45;1.15;;;;;;;6.94;41.87;101634.16;5082659;28;20021;-68
2021/04/18 03:17:33;;;;;;;3.15;1.10;;;;;;;6.87;42.22;101636.53;5082814;28;20050;-68
2021/04/18 03:19:58;;;;;;;2.20;1.45;;;;;;;6.85;42.32;101633.91;5083000;28;20025;-68
2021/04/18 03:22:23;;;;;;;1.92;1.23;;;;;;;6.76;42.58;101628.47;5086538;28;20032;-67
2021/04/18 03:24:49;;;;;;;4.40;1.60;;;;;;;6.75;42.63;101630.19;5086441;28;20024;-67
2021/04/18 03:27:14;;;;;;;4.43;1.63;;;;;;;6.71;42.70;101632.66;5086312;28;20028;-68
2021/04/18 03:29:40;;;;;;;2.65;1.23;;;;;;;6.68;42.76;101633.44;5085943;28;20374;-67
2021/04/18 03:32:06;;;;;;;5.70;1.65;;;;;;;6.62;43.31;101635.84;5086395;28;20024;-67
2021/04/18 03:34:33;;;;;;;3.70;1.80;;;;;;;6.59;43.51;101633.19;5086430;28;20032;-67
2021/04/18 03:36:59;;;;;;;2.53;1.38;;;;;;;6.51;43.47;101638.13;5086609;28;20033;-67
2021/04/18 03:39:24;;;;;;;2.63;1.30;;;;;;;6.52;43.98;101639.88;5086096;28;20020;-67
2021/04/18 03:41:49;;;;;;;2.88;1.40;;;;;;;6.48;44.06;101632.88;5086266;28;20028;-67
2021/04/18 03:44:15;;;;;;;1.90;1.05;;;;;;;6.43;44.15;101633.63;5085883;28;20028;-68
2021/04/18 03:46:40;;;;;;;5.55;1.40;;;;;;;6.34;44.28;101615.31;5086173;28;20085;-68
2021/04/18 03:49:06;;;;;;;4.35;1.30;;;;;;;6.36;44.34;101634.28;5085840;28;20040;-67
2021/04/18 03:51:31;;;;;;;3.50;1.50;;;;;;;6.34;44.41;101630.81;5085901;28;20027;-67
2021/04/18 03:53:56;;;;;;;3.78;1.40;;;;;;;6.28;44.48;101623.75;5084676;28;20016;-68
2021/04/18 03:56:22;;;;;;;1.92;1.05;;;;;;;6.29;44.59;101627.19;5085822;28;20025;-61
2021/04/18 03:58:48;;;;;;;1.92;1.33;;;;;;;6.26;44.58;101633.13;5085457;28;20054;-61
2021/04/18 04:01:13;;;;;;;4.18;1.30;;;;;;;6.29;44.60;101630.63;5085669;28;20021;-61
2021/04/18 04:03:39;;;;;;;5.03;1.23;;;;;;;6.22;44.76;101626.13;5085657;28;20100;-61
2021/04/18 04:06:05;;;;;;;4.30;1.50;;;;;;;6.22;44.73;101630.41;5084312;28;20435;-61
2021/04/18 04:08:32;;;;;;;3.47;1.10;;;;;;;6.19;44.68;101634.69;5085783;28;20021;-62
2021/04/18 04:10:57;;;;;;;2.40;1.10;;;;;;;6.23;44.93;101635.63;5085484;28;20029;-61
2021/04/18 04:13:23;;;;;;;5.90;1.30;;;;;;;6.23;44.97;101634.75;5085116;28;20071;-62
2021/04/18 04:15:49;;;;;;;3.42;1.40;;;;;;;6.25;44.75;101640.81;5085278;28;20021;-61
2021/04/18 04:18:14;;;;;;;2.92;2.08;;;;;;;6.22;44.74;101627.84;5085214;28;20028;-60
2021/04/18 04:20:40;;;;;;;2.72;1.30;;;;;;;6.24;44.71;101633.91;5083901;28;20032;-61
2021/04/18 04:23:05;;;;;;;3.97;1.35;;;;;;;6.26;44.78;101637.44;5085188;28;20025;-62
2021/04/18 04:25:32;;;;;;;4.68;1.13;;;;;;;6.29;44.87;101635.78;5085238;28;20040;-61
2021/04/18 04:27:58;;;;;;;3.38;1.20;;;;;;;6.35;44.60;101627.38;5084891;28;20026;-61
2021/04/18 04:30:24;;;;;;;2.20;1.40;;;;;;;6.44;44.65;101643.13;5084892;28;20068;-61
2021/04/18 04:32:49;;;;;;;2.20;1.20;;;;;;;6.54;44.30;101633.06;5084420;28;20027;-61
2021/04/18 04:35:15;;;;;;;1.88;1.35;;;;;;;6.62;44.04;101636.72;5085001;28;20024;-60
2021/04/18 04:37:40;;;;;;;2.45;1.30;;;;;;;6.75;43.79;101634.47;5083519;28;20032;-60
2021/04/18 04:40:06;;;;;;;1.80;1.00;;;;;;;6.80;43.64;101632.91;5084852;28;20013;-60
2021/04/18 04:42:32;;;;;;;2.35;1.30;;;;;;;6.83;43.65;101633.00;5085051;28;20021;-61
2021/04/18 04:44:57;;;;;;;2.85;1.23;;;;;;;7.01;43.40;101631.72;5084594;28;20047;-61
2021/04/18 04:47:23;;;;;;;5.78;1.95;;;;;;;7.05;43.37;101644.75;5084971;28;20032;-61
2021/04/18 04:49:48;;;;;;;1.73;1.10;;;;;;;7.09;43.07;101643.16;5084178;28;20098;-61
2021/04/18 04:52:13;;;;;;;4.00;1.20;;;;;;;7.12;43.17;101643.22;5084542;28;20044;-62
2021/04/18 04:54:39;;;;;;;6.18;1.45;;;;;;;7.13;43.18;101639.78;5084863;28;20021;-61
2021/04/18 04:57:05;;;;;;;2.88;1.10;;;;;;;7.27;43.18;101647.00;5084391;28;20276;-60
2021/04/18 04:59:31;;;;;;;2.97;1.40;;;;;;;7.35;42.71;101636.88;5084139;28;20024;-61
2021/04/18 05:01:56;;;;;;;1.98;1.10;;;;;;;7.49;42.67;101638.06;5084485;28;20029;-62
2021/04/18 05:04:21;;;;;;;4.28;1.27;;;;;;;7.66;42.21;101638.50;5084588;28;20104;-61
2021/04/18 05:06:47;;;;;;;2.47;1.17;;;;;;;7.79;42.18;101641.38;5084523;28;20517;-61
2021/04/18 05:09:12;;;;;;;3.03;1.38;;;;;;;7.89;41.73;101634.72;5082749;28;20024;-62
2021/04/18 05:11:37;;;;;;;1.15;0.95;;;;;;;8.09;41.42;101642.00;5084482;28;20008;-61
2021/04/18 05:14:03;;;;;;;2.85;1.80;;;;;;;8.26;41.17;101627.72;5084124;28;20035;-62
2021/04/18 05:16:29;;;;;;;1.63;0.93;;;;;;;8.43;40.70;101630.66;5084507;28;20105;-63
2021/04/18 05:18:54;;;;;;;3.55;1.40;;;;;;;8.57;40.44;101624.94;5084459;28;20016;-61
2021/04/18 05:21:20;;;;;;;1.98;1.23;;;;;;;8.63;40.08;101622.47;5084207;28;20051;-62
2021/04/18 05:23:45;;;;;;;1.50;1.20;;;;;;;8.76;39.97;101626.16;5084222;28;20030;-62
2021/04/18 05:26:11;;;;;;;1.88;1.00;;;;;;;8.83;39.63;101621.97;5084186;28;20514;-61
2021/04/18 05:28:37;;;;;;;1.92;1.13;;;;;;;9.01;39.33;101628.34;5083677;28;20115;-60
2021/04/18 05:31:03;;;;;;;2.22;1.00;;;;;;;9.21;38.90;101631.25;5082594;28;20031;-63
2021/04/18 05:33:28;;;;;;;4.07;1.35;;;;;;;9.30;39.04;101628.81;5083872;28;20036;-62
2021/04/18 05:35:54;;;;;;;1.70;1.00;;;;;;;9.52;38.62;101634.34;5082887;28;20438;-63
2021/04/18 05:38:19;;;;;;;1.95;1.05;;;;;;;9.54;38.16;101629.19;5082537;28;20027;-63
2021/04/18 05:40:45;;;;;;;2.25;1.20;;;;;;;9.46;37.89;101633.38;5083752;28;20028;-61
2021/04/18 05:43:11;;;;;;;4.07;1.23;;;;;;;9.39;38.27;101622.91;5083061;28;20024;-63
2021/04/18 05:45:37;;;;;;;3.92;1.20;;;;;;;9.65;37.55;101632.81;5083454;28;20027;-62
2021/04/18 05:48:03;;;;;;;2.80;1.23;;;;;;;9.64;37.53;101635.38;5083814;28;20021;-62
2021/04/18 05:50:28;;;;;;;2.03;0.88;;;;;;;9.79;37.04;101640.81;5083729;28;20051;-62
2021/04/18 05:52:54;;;;;;;1.77;1.13;;;;;;;9.71;37.17;101636.38;5083687;28;20028;-63
2021/04/18 05:55:19;;;;;;;2.38;1.20;;;;;;;9.71;36.63;101606.13;5083603;28;20034;-62
2021/04/18 05:57:44;;;;;;;1.85;1.20;;;;;;;9.92;36.61;101621.09;5082430;28;20029;-64
2021/04/18 06:00:11;;;;;;;1.90;1.27;;;;;;;9.89;36.64;101617.59;5083397;28;20019;-62
2021/04/18 06:02:36;;;;;;;1.80;1.10;;;;;;;10.04;36.44;101622.13;5083974;28;20032;-62
2021/04/18 06:05:02;;;;;;;2.03;1.00;;;;;;;10.00;36.29;101618.59;5083821;28;20024;-62
2021/04/18 06:07:27;;;;;;;2.95;0.90;;;;;;;10.04;36.46;101614.34;5083697;28;20119;-63
2021/04/18 06:09:53;;;;;;;3.95;2.22;;;;;;;10.03;36.25;101612.59;5083447;28;20043;-61
2021/04/18 06:12:18;;;;;;;3.35;1.67;;;;;;;10.03;36.25;101633.38;5083474;28;20025;-62
2021/04/18 06:14:44;;;;;;;2.15;0.95;;;;;;;10.09;35.90;101617.88;5083156;28;20498;-61
2021/04/18 06:17:09;;;;;;;1.38;1.00;;;;;;;10.24;36.00;101608.56;5083613;28;20052;-61
2021/04/18 06:19:35;;;;;;;3.50;1.25;;;;;;;10.33;35.59;101626.81;5083188;28;20082;-63
2021/04/18 06:22:00;;;;;;;2.05;1.38;;;;;;;10.41;35.70;101613.94;5083299;28;20021;-62
2021/04/18 06:24:26;;;;;;;2.38;1.15;;;;;;;10.49;35.33;101621.84;5083584;28;20158;-61
2021/04/18 06:26:51;;;;;;;1.63;0.95;;;;;;;10.53;35.24;101608.03;5082249;28;20029;-62
2021/04/18 06:29:16;;;;;;;2.72;1.13;;;;;;;10.46;35.31;101595.81;5082986;28;20024;-63
2021/04/18 06:31:43;;;;;;;3.55;1.48;;;;;;;10.48;35.33;101612.31;5083391;28;20044;-63
2021/04/18 06:34:09;;;;;;;3.80;1.27;;;;;;;10.51;35.45;101601.97;5083543;28;20508;-61
2021/04/18 06:36:34;;;;;;;1.63;0.95;;;;;;;10.63;35.17;101614.19;5083478;28;20024;-62
2021/04/18 06:38:59;;;;;;;4.38;1.10;;;;;;;10.68;35.15;101617.72;5083115;28;20021;-62
2021/04/18 06:41:30;;;;;;;3.38;1.10;;;;;;;10.71;35.13;101607.38;5083330;28;20020;-62
2021/04/18 06:43:56;;;;;;;2.28;1.20;;;;;;;10.78;35.25;101614.34;5083068;28;20103;-59
2021/04/18 06:46:22;;;;;;;2.05;1.13;;;;;;;10.98;35.04;101599.81;5083257;28;20511;-60
2021/04/18 06:48:49;;;;;;;2.67;1.20;;;;;;;11.22;34.48;101590.50;5083047;28;20056;-62
2021/04/18 06:51:23;;;;;;;3.08;1.42;;;;;;;11.27;34.31;101601.81;5083134;28;20021;-60
2021/04/18 06:53:49;;;;;;;7.85;1.35;;;;;;;11.32;34.33;101594.91;5083039;28;20021;-59
2021/04/18 06:56:14;;;;;;;2.72;1.20;;;;;;;11.60;34.69;101589.03;5084232;28;20021;-64
2021/04/18 06:58:40;;;;;;;1.83;1.30;;;;;;;12.06;33.81;101600.56;5085290;28;20032;-65
2021/04/18 07:01:05;;;;;;;5.00;1.75;;;;;;;12.43;33.03;101592.06;5086961;28;20046;-61
2021/04/18 07:03:31;;;;;;;3.50;1.30;;;;;;;12.67;33.27;101590.38;5086887;28;20087;-61
2021/04/18 07:05:58;;;;;;;3.13;1.27;;;;;;;12.99;31.78;101597.34;5086973;28;20024;-60
2021/04/18 07:08:32;;;;;;;2.20;1.15;;;;;;;12.85;32.13;101590.41;5086991;28;20020;-61
2021/04/18 07:11:11;;;;;;;2.25;1.10;;;;;;;12.75;32.42;101584.31;5086610;28;20029;-60
2021/04/18 07:13:38;;;;;;;1.90;1.00;;;;;;;13.08;32.23;101589.53;5086510;28;20036;-61
2021/04/18 07:16:03;;;;;;;3.67;1.25;;;;;;;13.35;31.96;101592.13;5086617;28;20016;-61
2021/04/18 07:18:40;;;;;;;1.95;1.20;;;;;;;13.66;31.74;101583.44;5085407;28;20035;-62
2021/04/18 07:21:05;;;;;;;3.50;1.73;;;;;;;13.90;30.80;101584.25;5086480;28;20051;-63
2021/04/18 07:23:35;;;;;;;2.13;1.10;;;;;;;14.04;30.77;101585.03;5086515;28;20036;-61
2021/04/18 07:26:23;;;;;;;3.25;1.30;;;;;;;14.24;31.01;101584.97;5086388;28;20245;-62
2021/04/18 07:28:50;;;;;;;5.75;1.55;;;;;;;14.37;30.00;101572.72;5086094;28;20157;-61
2021/04/18 07:31:33;;;;;;;4.53;1.17;;;;;;;14.59;30.13;101582.16;5086164;28;20052;-60
2021/04/18 07:34:19;;;;;;;4.07;1.17;;;;;;;14.55;29.60;101590.91;5086462;28;20024;-61
2021/04/18 07:36:50;;;;;;;2.58;1.38;;;;;;;14.52;29.98;101588.31;5086096;28;20036;-61
2021/04/18 07:39:18;;;;;;;3.00;1.70;;;;;;;14.57;30.05;101590.00;5086228;28;20053;-61
2021/04/18 07:41:47;;;;;;;4.85;1.77;;;;;;;14.80;29.68;101589.03;5086178;28;20016;-60
2021/04/18 07:44:15;;;;;;;2.80;1.20;;;;;;;14.86;29.37;101591.59;5085941;28;20032;-61
2021/04/18 07:46:52;;;;;;;8.48;1.65;;;;;;;14.91;29.59;101593.28;5086318;28;20381;-62
2021/04/18 07:49:19;;;;;;;3.25;1.42;;;;;;;15.08;28.88;101601.03;5085985;28;20040;-62
2021/04/18 07:51:49;;;;;;;1.48;0.98;;;;;;;15.06;28.74;101601.03;5085934;28;20023;-62
2021/04/18 07:54:15;;;;;;;6.53;1.60;;;;;;;14.75;29.01;101607.31;5084604;28;20025;-60
2021/04/18 07:56:45;;;;;;;2.83;1.42;;;;;;;14.62;29.41;101600.41;5085935;28;20027;-61
2021/04/18 07:59:15;;;;;;;1.65;1.15;;;;;;;14.81;29.29;101609.03;5085655;28;20024;-63
2021/04/18 08:01:40;;;;;;;2.05;1.45;;;;;;;14.70;29.04;101605.59;5085908;28;20020;-67
2021/04/18 08:04:09;;;;;;;3.65;1.15;;;;;;;14.55;29.49;101603.97;5086127;28;20023;-67
2021/04/18 08:06:39;;;;;;;2.00;1.20;;;;;;;14.71;29.43;101602.13;5085099;28;20025;-67
2021/04/18 08:09:16;;;;;;;2.58;1.30;;;;;;;14.83;29.48;101604.69;5085734;28;20056;-68
2021/04/18 08:11:41;;;;;;;6.63;1.58;;;;;;;15.15;29.39;101604.44;5085758;28;20048;-67
2021/04/18 08:14:16;;;;;;;6.05;1.42;;;;;;;15.41;28.84;101599.00;5085458;28;20452;-67
2021/04/18 08:16:41;;;;;;;2.30;1.17;;;;;;;15.47;28.65;101595.44;5085844;28;20024;-67
2021/04/18 08:19:10;;;;;;;4.15;1.33;;;;;;;15.58;28.93;101595.31;5085714;28;20036;-67
2021/04/18 08:21:40;;;;;;;2.42;1.10;;;;;;;16.17;28.79;101584.19;5084031;28;20025;-66
2021/04/18 08:24:19;;;;;;;2.53;1.35;;;;;;;16.69;27.77;101584.34;5085672;28;20080;-68
2021/04/18 08:27:05;;;;;;;4.47;1.63;;;;;;;17.07;27.09;101591.63;5084348;28;20020;-70
2021/04/18 08:29:30;;;;;;;2.90;0.95;;;;;;;17.13;27.14;101594.19;5084930;28;20017;-68
2021/04/18 08:32:16;;;;;;;4.22;1.20;;;;;;;17.11;26.83;101592.47;5084994;28;20021;-67
2021/04/18 08:34:43;;;;;;;4.15;1.30;;;;;;;17.18;26.77;101588.84;5084887;28;20086;-67
2021/04/18 08:37:14;;;;;;;13.05;2.08;;;;;;;17.17;26.87;101587.97;5085194;28;20382;-67
2021/04/18 08:39:41;;;;;;;2.58;1.65;;;;;;;17.37;26.50;101578.03;5084843;28;20024;-67
2021/04/18 08:42:08;;;;;;;3.95;1.08;;;;;;;17.59;26.36;101583.72;5084971;28;20028;-67
2021/04/18 08:44:37;;;;;;;6.45;1.67;;;;;;;17.83;26.05;101574.50;5084677;28;20033;-66
2021/04/18 08:47:16;;;;;;;1.95;1.17;;;;;;;18.10;25.92;101579.22;5085084;28;20024;-67
2021/04/18 08:49:44;;;;;;;3.28;1.40;;;;;;;18.28;25.36;101582.38;5084230;28;20044;-66
2021/04/18 08:52:11;;;;;;;3.40;1.30;;;;;;;18.17;25.03;101570.34;5084916;28;20119;-61
2021/04/18 08:54:41;;;;;;;2.53;1.25;;;;;;;17.99;25.87;101571.56;5084899;28;20024;-66
2021/04/18 08:57:11;;;;;;;3.50;1.80;;;;;;;18.05;25.65;101570.59;5084623;28;20023;-64
2021/04/18 08:59:38;;;;;;;3.47;1.45;;;;;;;18.29;25.83;101563.94;5084304;28;20051;-66
2021/04/18 09:02:11;;;;;;;4.85;1.48;;;;;;;18.85;25.05;101574.94;5084768;28;20130;-68
2021/04/18 09:04:42;;;;;;;5.13;2.03;;;;;;;19.01;24.81;101572.78;5084640;28;20024;-65
2021/04/18 09:07:12;;;;;;;3.10;1.50;;;;;;;18.97;24.77;101565.00;5084720;28;20074;-68
2021/04/18 09:09:38;;;;;;;5.15;1.48;;;;;;;19.09;24.91;101575.25;5084440;28;20033;-68
2021/04/18 09:12:04;;;;;;;3.65;1.50;;;;;;;19.23;24.55;101572.28;5084377;28;20035;-68
2021/04/18 09:14:35;;;;;;;4.57;1.55;;;;;;;19.21;24.57;101566.19;5084271;28;20048;-65
2021/04/18 09:17:28;;;;;;;2.45;1.27;;;;;;;19.34;24.37;101571.13;5084169;28;20021;-60
2021/04/18 09:19:57;;;;;;;2.33;1.40;;;;;;;19.35;24.29;101564.94;5079987;28;20040;-63
2021/04/18 09:22:33;;;;;;;3.55;1.10;;;;;;;19.50;24.16;101575.06;5084014;28;20045;-65
2021/04/18 09:25:09;;;;;;;2.00;1.15;;;;;;;19.72;24.20;101565.69;5084239;28;20054;-66
2021/04/18 09:27:37;;;;;;;2.60;1.52;;;;;;;19.86;23.72;101555.63;5084191;28;20028;-66
2021/04/18 09:30:11;;;;;;;4.95;2.10;;;;;;;19.89;23.61;101546.78;5083962;28;20024;-69
2021/04/18 09:32:44;;;;;;;3.17;1.40;;;;;;;19.81;23.48;101547.84;5083877;28;20392;-69
2021/04/18 09:35:10;;;;;;;5.20;1.55;;;;;;;19.88;23.22;101551.19;5084180;28;20358;-68
2021/04/18 09:37:39;;;;;;;2.80;1.33;;;;;;;19.87;23.07;101559.13;5082624;28;20408;-65
2021/04/18 09:40:08;;;;;;;6.80;1.60;;;;;;;19.62;23.35;101555.41;5083776;28;20017;-69
2021/04/18 09:42:36;;;;;;;3.45;1.42;;;;;;;19.53;23.76;101546.03;5083761;28;20032;-67
2021/04/18 09:45:14;;;;;;;2.83;1.40;;;;;;;19.64;23.41;101539.56;5083458;28;20048;-65
2021/04/18 09:47:42;;;;;;;2.33;1.30;;;;;;;19.59;23.44;101552.00;5083440;28;20028;-65
2021/04/18 09:50:38;;;;;;;3.92;1.58;;;;;;;19.45;23.48;101545.34;5083291;28;20620;-69
2021/04/18 09:53:24;;;;;;;5.95;1.70;;;;;;;19.52;23.70;101553.97;5083969;28;20024;-67
2021/04/18 09:55:57;;;;;;;5.30;1.75;;;;;;;19.61;23.46;101537.91;5083834;28;20024;-68
2021/04/18 09:58:37;;;;;;;2.92;1.10;;;;;;;19.81;23.11;101536.44;5083157;28;20114;-66
2021/04/18 10:01:05;;;;;;;5.38;1.52;;;;;;;19.48;22.99;101566.34;5083614;28;20213;-68
2021/04/18 10:03:34;;;;;;;3.22;1.48;;;;;;;19.14;23.24;101546.16;5083882;28;20028;-69
2021/04/18 10:06:00;;;;;;;1.92;1.00;;;;;;;19.18;23.56;101548.72;5083579;28;20035;-67
2021/04/18 10:08:34;;;;;;;3.22;1.30;;;;;;;19.30;23.32;101557.16;5083621;28;20032;-66
2021/04/18 10:11:05;;;;;;;3.45;1.50;;;;;;;19.23;23.15;101542.44;5083529;28;20025;-69
2021/04/18 10:13:36;;;;;;;4.93;1.50;;;;;;;19.08;23.08;101542.78;5083336;28;20139;-67
2021/04/18 10:16:06;;;;;;;2.60;1.65;;;;;;;19.04;23.24;101543.75;5083635;28;20023;-66
2021/04/18 10:18:33;;;;;;;3.35;1.55;;;;;;;18.84;23.71;101533.75;5081974;28;20029;-68
2021/04/18 10:21:21;;;;;;;5.80;1.98;;;;;;;19.12;23.35;101540.09;5083251;28;20024;-68
2021/04/18 10:23:49;;;;;;;3.55;1.30;;;;;;;19.56;23.20;101532.75;5083392;28;20039;-68
2021/04/18 10:26:18;;;;;;;2.95;1.40;;;;;;;19.86;22.78;101534.53;5083319;28;20043;-69
2021/04/18 10:28:44;;;;;;;3.75;1.73;;;;;;;19.98;22.37;101530.69;5083076;28;20476;-68
2021/04/18 10:31:12;;;;;;;3.13;1.65;;;;;;;19.94;21.93;101539.56;5085527;28;20051;-66
2021/04/18 10:33:37;;;;;;;3.25;1.20;;;;;;;19.63;22.33;101529.94;5087757;28;20071;-65
2021/04/18 10:36:03;;;;;;;2.13;1.55;;;;;;;19.59;22.34;101533.56;5087716;28;20025;-64
2021/04/18 10:38:28;;;;;;;2.63;1.50;;;;;;;19.27;22.40;101538.81;5086335;28;20024;-64
2021/04/18 10:40:53;;;;;;;4.13;1.50;;;;;;;19.04;23.05;101535.84;5087460;28;20021;-66
2021/04/18 10:43:18;;;;;;;4.47;1.20;;;;;;;19.16;23.30;101542.63;5087392;28;20039;-65
2021/04/18 10:45:44;;;;;;;3.70;1.65;;;;;;;19.28;23.24;101541.41;5087341;28;20048;-66
2021/04/18 10:48:09;;;;;;;2.92;1.33;;;;;;;19.61;22.74;101524.72;5087289;28;20327;-66
2021/04/18 10:50:35;;;;;;;4.88;1.80;;;;;;;19.68;22.76;101517.50;5087070;28;20025;-65
2021/04/18 10:53:00;;;;;;;3.42;1.20;;;;;;;19.85;22.83;101521.41;5087378;28;20062;-65
2021/04/18 10:55:26;;;;;;;3.60;1.50;;;;;;;20.13;22.33;101531.13;5087205;28;20024;-65
2021/04/18 10:57:51;;;;;;;3.92;1.50;;;;;;;19.88;22.43;101530.09;5087245;28;20408;-65
2021/04/18 11:00:17;;;;;;;3.55;1.58;;;;;;;19.91;21.93;101522.09;5086788;28;20028;-67
2021/04/18 11:02:43;;;;;;;2.40;1.20;;;;;;;19.66;22.64;101516.69;5087048;28;20032;-65
2021/04/18 11:05:09;;;;;;;4.60;1.48;;;;;;;19.62;22.88;101509.75;5087174;28;20029;-65
2021/04/18 11:07:35;;;;;;;5.55;1.65;;;;;;;19.81;22.54;101505.69;5087036;28;20024;-65
2021/04/18 11:10:00;;;;;;;2.97;1.55;;;;;;;20.04;22.20;101501.53;5086707;28;20047;-66
2021/04/18 11:12:26;;;;;;;2.70;1.50;;;;;;;20.12;22.22;101511.84;5086903;28;20392;-65
2021/04/18 11:14:52;;;;;;;2.72;1.27;;;;;;;20.43;22.04;101515.28;5086469;28;20070;-65
2021/04/18 11:17:18;;;;;;;2.53;1.13;;;;;;;20.47;21.54;101514.25;5086903;28;20055;-65
2021/04/18 11:19:43;;;;;;;5.80;1.60;;;;;;;20.43;21.78;101504.72;5086727;28;20020;-65
2021/04/18 11:22:09;;;;;;;6.07;2.00;;;;;;;20.62;21.76;101515.53;5086595;28;20332;-65
2021/04/18 11:24:34;;;;;;;4.82;1.85;;;;;;;20.96;21.13;101500.34;5086718;28;20025;-65
2021/04/18 11:27:00;;;;;;;4.28;1.50;;;;;;;20.18;21.73;101490.56;5086804;28;20021;-66
2021/04/18 11:29:25;;;;;;;4.07;1.83;;;;;;;19.40;23.05;101491.97;5086274;28;20133;-65